sensor_id;sensor_type;location;lat;lon;timestamp;pressure;altitude;pressure_sealevel;temperature;humidity
69411;BME280;56604;48.652;9.194;2023-11-21T00:02:20;95647.31;;;7.05;100.00
69411;BME280;56604;48.652;9.194;2023-11-21T00:04:48;95646.34;;;7.11;100.00
69411;BME280;56604;48.652;9.194;2023-11-21T00:07:13;95645.41;;;7.17;100.00
69411;BME280;56604;48.652;9.194;2023-11-21T00:09:40;95649.13;;;7.21;100.00
69411;BME280;56604;48.652;9.194;2023-11-21T00:12:06;95647.28;;;7.22;100.00
69411;BME280;56604;48.652;9.194;2023-11-21T00:14:38;95638.59;;;7.16;100.00
69411;BME280;56604;48.652;9.194;2023-11-21T00:17:06;95634.47;;;7.20;100.00
69411;BME280;56604;48.652;9.194;2023-11-21T00:19:32;95629.66;;;7.12;100.00
69411;BME280;56604;48.652;9.194;2023-11-21T00:21:58;95632.88;;;7.19;100.00
69411;BME280;56604;48.652;9.194;2023-11-21T00:24:24;95624.31;;;7.24;100.00
69411;BME280;56604;48.652;9.194;2023-11-21T00:26:50;95629.53;;;7.24;100.00
69411;BME280;56604;48.652;9.194;2023-11-21T00:29:15;95631.59;;;7.22;100.00
69411;BME280;56604;48.652;9.194;2023-11-21T00:31:43;95626.38;;;7.22;100.00
69411;BME280;56604;48.652;9.194;2023-11-21T00:34:08;95625.09;;;7.25;100.00
69411;BME280;56604;48.652;9.194;2023-11-21T00:36:33;95628.47;;;7.20;100.00
69411;BME280;56604;48.652;9.194;2023-11-21T00:38:59;95628.75;;;7.24;100.00
69411;BME280;56604;48.652;9.194;2023-11-21T00:41:25;95635.44;;;7.14;100.00
69411;BME280;56604;48.652;9.194;2023-11-21T00:43:53;95627.16;;;7.22;100.00
69411;BME280;56604;48.652;9.194;2023-11-21T00:46:18;95634.41;;;7.15;100.00
69411;BME280;56604;48.652;9.194;2023-11-21T00:48:44;95637.50;;;7.12;100.00
69411;BME280;56604;48.652;9.194;2023-11-21T00:51:09;95633.28;;;7.11;100.00
69411;BME280;56604;48.652;9.194;2023-11-21T00:53:34;95626.75;;;7.09;100.00
69411;BME280;56604;48.652;9.194;2023-11-21T00:55:59;95637.44;;;7.07;100.00
69411;BME280;56604;48.652;9.194;2023-11-21T00:58:25;95625.00;;;7.14;100.00
69411;BME280;56604;48.652;9.194;2023-11-21T01:00:50;95633.25;;;7.06;100.00
69411;BME280;56604;48.652;9.194;2023-11-21T01:03:16;95626.91;;;7.02;100.00
69411;BME280;56604;48.652;9.194;2023-11-21T01:05:41;95634.81;;;7.07;100.00
69411;BME280;56604;48.652;9.194;2023-11-21T01:08:06;95629.59;;;7.07;100.00
69411;BME280;56604;48.652;9.194;2023-11-21T01:10:31;95638.47;;;7.06;100.00
69411;BME280;56604;48.652;9.194;2023-11-21T01:12:57;95632.91;;;7.03;100.00
69411;BME280;56604;48.652;9.194;2023-11-21T01:15:23;95635.84;;;7.06;100.00
69411;BME280;56604;48.652;9.194;2023-11-21T01:17:48;95629.88;;;7.11;100.00
69411;BME280;56604;48.652;9.194;2023-11-21T01:20:13;95621.25;;;7.10;100.00
69411;BME280;56604;48.652;9.194;2023-11-21T01:22:39;95629.59;;;7.07;100.00
69411;BME280;56604;48.652;9.194;2023-11-21T01:25:04;95615.81;;;7.12;100.00
69411;BME280;56604;48.652;9.194;2023-11-21T01:27:33;95613.41;;;7.10;100.00
69411;BME280;56604;48.652;9.194;2023-11-21T01:29:59;95620.19;;;7.06;100.00
69411;BME280;56604;48.652;9.194;2023-11-21T01:32:24;95616.53;;;7.07;100.00
69411;BME280;56604;48.652;9.194;2023-11-21T01:34:50;95621.66;;;7.02;100.00
69411;BME280;56604;48.652;9.194;2023-11-21T01:37:15;95623.31;;;7.08;100.00
69411;BME280;56604;48.652;9.194;2023-11-21T01:39:43;95611.53;;;7.06;100.00
69411;BME280;56604;48.652;9.194;2023-11-21T01:42:10;95610.91;;;6.98;100.00
69411;BME280;56604;48.652;9.194;2023-11-21T01:44:38;95604.44;;;7.01;100.00
69411;BME280;56604;48.652;9.194;2023-11-21T01:47:04;95613.75;;;6.97;100.00
69411;BME280;56604;48.652;9.194;2023-11-21T01:49:35;95606.06;;;7.07;100.00
69411;BME280;56604;48.652;9.194;2023-11-21T01:52:01;95606.28;;;7.06;100.00
69411;BME280;56604;48.652;9.194;2023-11-21T01:54:27;95618.03;;;7.03;100.00
69411;BME280;56604;48.652;9.194;2023-11-21T01:56:54;95613.75;;;6.97;100.00
69411;BME280;56604;48.652;9.194;2023-11-21T01:59:21;95606.78;;;7.03;100.00
69411;BME280;56604;48.652;9.194;2023-11-21T02:01:47;95614.69;;;7.08;100.00
69411;BME280;56604;48.652;9.194;2023-11-21T02:04:13;95614.88;;;7.01;100.00
69411;BME280;56604;48.652;9.194;2023-11-21T02:06:38;95614.94;;;7.06;100.00
69411;BME280;56604;48.652;9.194;2023-11-21T02:09:04;95614.63;;;7.03;100.00
69411;BME280;56604;48.652;9.194;2023-11-21T02:11:30;95618.69;;;6.93;100.00
69411;BME280;56604;48.652;9.194;2023-11-21T02:13:56;95609.56;;;6.96;100.00
69411;BME280;56604;48.652;9.194;2023-11-21T02:16:24;95613.75;;;6.97;100.00
69411;BME280;56604;48.652;9.194;2023-11-21T02:18:50;95609.03;;;6.94;100.00
69411;BME280;56604;48.652;9.194;2023-11-21T02:21:16;95611.72;;;6.99;100.00
69411;BME280;56604;48.652;9.194;2023-11-21T02:23:41;95612.25;;;7.01;100.00
69411;BME280;56604;48.652;9.194;2023-11-21T02:26:10;95608.97;;;6.89;100.00
69411;BME280;56604;48.652;9.194;2023-11-21T02:28:36;95606.28;;;6.84;100.00
69411;BME280;56604;48.652;9.194;2023-11-21T02:31:01;95602.50;;;6.74;100.00
69411;BME280;56604;48.652;9.194;2023-11-21T02:33:28;95602.97;;;6.71;100.00
69411;BME280;56604;48.652;9.194;2023-11-21T02:35:53;95607.31;;;6.66;100.00
69411;BME280;56604;48.652;9.194;2023-11-21T02:38:20;95585.50;;;6.55;100.00
69411;BME280;56604;48.652;9.194;2023-11-21T02:40:46;95596.19;;;6.53;100.00
69411;BME280;56604;48.652;9.194;2023-11-21T02:43:11;95592.31;;;6.56;100.00
69411;BME280;56604;48.652;9.194;2023-11-21T02:45:36;95592.72;;;6.48;100.00
69411;BME280;56604;48.652;9.194;2023-11-21T02:48:02;95593.75;;;6.47;100.00
69411;BME280;56604;48.652;9.194;2023-11-21T02:50:27;95593.75;;;6.47;100.00
69411;BME280;56604;48.652;9.194;2023-11-21T02:52:52;95590.84;;;6.43;100.00
69411;BME280;56604;48.652;9.194;2023-11-21T02:55:18;95596.28;;;6.42;100.00
69411;BME280;56604;48.652;9.194;2023-11-21T02:57:43;95590.50;;;6.40;100.00
69411;BME280;56604;48.652;9.194;2023-11-21T03:00:09;95586.94;;;6.46;100.00
69411;BME280;56604;48.652;9.194;2023-11-21T03:02:40;95595.31;;;6.48;100.00
69411;BME280;56604;48.652;9.194;2023-11-21T03:05:06;95588.03;;;6.50;100.00
69411;BME280;56604;48.652;9.194;2023-11-21T03:07:31;95586.78;;;6.52;100.00
69411;BME280;56604;48.652;9.194;2023-11-21T03:09:56;95592.78;;;6.53;100.00
69411;BME280;56604;48.652;9.194;2023-11-21T03:12:22;95584.41;;;6.51;100.00
69411;BME280;56604;48.652;9.194;2023-11-21T03:14:48;95592.22;;;6.51;100.00
69411;BME280;56604;48.652;9.194;2023-11-21T03:17:13;95588.66;;;6.57;100.00
69411;BME280;56604;48.652;9.194;2023-11-21T03:19:41;95587.56;;;6.53;100.00
69411;BME280;56604;48.652;9.194;2023-11-21T03:22:06;95591.59;;;6.61;100.00
69411;BME280;56604;48.652;9.194;2023-11-21T03:24:32;95599.44;;;6.61;100.00
69411;BME280;56604;48.652;9.194;2023-11-21T03:26:57;95591.44;;;6.67;100.00
69411;BME280;56604;48.652;9.194;2023-11-21T03:29:22;95594.59;;;6.69;100.00
69411;BME280;56604;48.652;9.194;2023-11-21T03:31:47;95602.56;;;6.63;100.00
69411;BME280;56604;48.652;9.194;2023-11-21T03:34:24;95603.22;;;6.70;100.00
69411;BME280;56604;48.652;9.194;2023-11-21T03:36:51;95598.97;;;6.64;100.00
69411;BME280;56604;48.652;9.194;2023-11-21T03:39:16;95598.63;;;6.60;100.00
69411;BME280;56604;48.652;9.194;2023-11-21T03:41:41;95600.78;;;6.63;100.00
69411;BME280;56604;48.652;9.194;2023-11-21T03:44:06;95601.69;;;6.74;100.00
69411;BME280;56604;48.652;9.194;2023-11-21T03:46:32;95602.44;;;6.69;100.00
69411;BME280;56604;48.652;9.194;2023-11-21T03:48:57;95606.22;;;6.79;100.00
69411;BME280;56604;48.652;9.194;2023-11-21T03:51:22;95609.88;;;6.78;100.00
69411;BME280;56604;48.652;9.194;2023-11-21T03:53:48;95606.22;;;6.79;100.00
69411;BME280;56604;48.652;9.194;2023-11-21T03:56:14;95607.97;;;6.73;100.00
69411;BME280;56604;48.652;9.194;2023-11-21T03:58:39;95608.75;;;6.73;100.00
69411;BME280;56604;48.652;9.194;2023-11-21T04:01:05;95601.94;;;6.72;100.00
69411;BME280;56604;48.652;9.194;2023-11-21T04:03:30;95595.75;;;6.79;100.00
69411;BME280;56604;48.652;9.194;2023-11-21T04:05:55;95597.69;;;6.66;100.00
69411;BME280;56604;48.652;9.194;2023-11-21T04:08:21;95596.16;;;6.70;100.00
69411;BME280;56604;48.652;9.194;2023-11-21T04:10:46;95606.53;;;6.65;100.00
69411;BME280;56604;48.652;9.194;2023-11-21T04:13:11;95611.28;;;6.68;100.00
69411;BME280;56604;48.652;9.194;2023-11-21T04:15:37;95609.72;;;6.67;100.00
69411;BME280;56604;48.652;9.194;2023-11-21T04:18:02;95604.00;;;6.70;100.00
69411;BME280;56604;48.652;9.194;2023-11-21T04:20:28;95613.38;;;6.66;100.00
69411;BME280;56604;48.652;9.194;2023-11-21T04:22:53;95606.13;;;6.73;100.00
69411;BME280;56604;48.652;9.194;2023-11-21T04:25:19;95606.88;;;6.69;100.00
69411;BME280;56604;48.652;9.194;2023-11-21T04:27:44;95604.31;;;6.74;100.00
69411;BME280;56604;48.652;9.194;2023-11-21T04:30:13;95608.13;;;6.66;100.00
69411;BME280;56604;48.652;9.194;2023-11-21T04:32:39;95607.47;;;6.76;100.00
69411;BME280;56604;48.652;9.194;2023-11-21T04:35:04;95608.81;;;6.79;100.00
69411;BME280;56604;48.652;9.194;2023-11-21T04:37:30;95626.03;;;6.74;100.00
69411;BME280;56604;48.652;9.194;2023-11-21T04:39:55;95621.19;;;6.83;100.00
69411;BME280;56604;48.652;9.194;2023-11-21T04:42:21;95627.81;;;6.74;100.00
69411;BME280;56604;48.652;9.194;2023-11-21T04:44:47;95621.09;;;6.78;100.00
69411;BME280;56604;48.652;9.194;2023-11-21T04:47:12;95628.19;;;6.83;100.00
69411;BME280;56604;48.652;9.194;2023-11-21T04:49:39;95626.63;;;6.82;100.00
69411;BME280;56604;48.652;9.194;2023-11-21T04:52:05;95623.22;;;6.81;100.00
69411;BME280;56604;48.652;9.194;2023-11-21T04:54:30;95619.84;;;6.81;100.00
69411;BME280;56604;48.652;9.194;2023-11-21T04:56:56;95625.06;;;6.81;100.00
69411;BME280;56604;48.652;9.194;2023-11-21T04:59:21;95629.47;;;6.80;100.00
69411;BME280;56604;48.652;9.194;2023-11-21T05:01:50;95634.38;;;6.76;100.00
69411;BME280;56604;48.652;9.194;2023-11-21T05:04:15;95628.84;;;6.73;100.00
69411;BME280;56604;48.652;9.194;2023-11-21T05:06:40;95636.47;;;6.74;100.00
69411;BME280;56604;48.652;9.194;2023-11-21T05:09:05;95633.38;;;6.78;100.00
69411;BME280;56604;48.652;9.194;2023-11-21T05:11:31;95637.00;;;6.76;100.00
69411;BME280;56604;48.652;9.194;2023-11-21T05:13:57;95634.69;;;6.80;100.00
69411;BME280;56604;48.652;9.194;2023-11-21T05:16:25;95636.28;;;6.81;100.00
69411;BME280;56604;48.652;9.194;2023-11-21T05:18:52;95644.69;;;6.83;100.00
69411;BME280;56604;48.652;9.194;2023-11-21T05:21:18;95642.41;;;6.70;100.00
69411;BME280;56604;48.652;9.194;2023-11-21T05:23:46;95643.59;;;6.62;100.00
69411;BME280;56604;48.652;9.194;2023-11-21T05:26:11;95650.53;;;6.57;100.00
69411;BME280;56604;48.652;9.194;2023-11-21T05:28:36;95652.94;;;6.58;100.00
69411;BME280;56604;48.652;9.194;2023-11-21T05:31:02;95651.50;;;6.67;100.00
69411;BME280;56604;48.652;9.194;2023-11-21T05:33:27;95655.16;;;6.66;100.00
69411;BME280;56604;48.652;9.194;2023-11-21T05:35:52;95663.03;;;6.71;100.00
69411;BME280;56604;48.652;9.194;2023-11-21T05:38:17;95666.13;;;6.68;100.00
69411;BME280;56604;48.652;9.194;2023-11-21T05:40:43;95668.22;;;6.66;100.00
69411;BME280;56604;48.652;9.194;2023-11-21T05:43:09;95659.09;;;6.69;100.00
69411;BME280;56604;48.652;9.194;2023-11-21T05:45:34;95666.47;;;6.72;100.00
69411;BME280;56604;48.652;9.194;2023-11-21T05:47:59;95667.47;;;6.71;100.00
69411;BME280;56604;48.652;9.194;2023-11-21T05:50:25;95671.28;;;6.63;100.00
69411;BME280;56604;48.652;9.194;2023-11-21T05:52:50;95668.25;;;6.71;100.00
69411;BME280;56604;48.652;9.194;2023-11-21T05:55:16;95668.75;;;6.68;100.00
69411;BME280;56604;48.652;9.194;2023-11-21T05:57:42;95670.81;;;6.66;100.00
69411;BME280;56604;48.652;9.194;2023-11-21T06:00:12;95667.81;;;6.74;100.00
69411;BME280;56604;48.652;9.194;2023-11-21T06:02:48;95665.13;;;6.69;100.00
69411;BME280;56604;48.652;9.194;2023-11-21T06:05:17;95667.81;;;6.74;100.00
69411;BME280;56604;48.652;9.194;2023-11-21T06:07:43;95662.09;;;6.78;100.00
69411;BME280;56604;48.652;9.194;2023-11-21T06:10:10;95668.69;;;6.63;100.00
69411;BME280;56604;48.652;9.194;2023-11-21T06:12:36;95677.22;;;6.59;100.00
69411;BME280;56604;48.652;9.194;2023-11-21T06:15:03;95677.31;;;6.64;100.00
69411;BME280;56604;48.652;9.194;2023-11-21T06:17:30;95682.19;;;6.60;100.00
69411;BME280;56604;48.652;9.194;2023-11-21T06:19:55;95679.53;;;6.55;100.00
69411;BME280;56604;48.652;9.194;2023-11-21T06:22:21;95691.06;;;6.59;100.00
69411;BME280;56604;48.652;9.194;2023-11-21T06:24:46;95685.84;;;6.59;100.00
69411;BME280;56604;48.652;9.194;2023-11-21T06:27:12;95683.63;;;6.68;100.00
69411;BME280;56604;48.652;9.194;2023-11-21T06:29:37;95694.16;;;6.73;100.00
69411;BME280;56604;48.652;9.194;2023-11-21T06:32:03;95690.03;;;6.77;100.00
69411;BME280;56604;48.652;9.194;2023-11-21T06:34:30;95698.91;;;6.76;100.00
69411;BME280;56604;48.652;9.194;2023-11-21T06:36:55;95705.38;;;6.73;100.00
69411;BME280;56604;48.652;9.194;2023-11-21T06:39:21;95700.72;;;6.75;100.00
69411;BME280;56604;48.652;9.194;2023-11-21T06:41:49;95705.00;;;6.82;100.00
69411;BME280;56604;48.652;9.194;2023-11-21T06:44:14;95714.88;;;6.80;100.00
69411;BME280;56604;48.652;9.194;2023-11-21T06:46:40;95715.44;;;6.82;100.00
69411;BME280;56604;48.652;9.194;2023-11-21T06:49:07;95722.59;;;6.86;100.00
69411;BME280;56604;48.652;9.194;2023-11-21T06:51:32;95719.09;;;6.81;100.00
69411;BME280;56604;48.652;9.194;2023-11-21T06:53:58;95717.59;;;6.85;100.00
69411;BME280;56604;48.652;9.194;2023-11-21T06:56:23;95719.88;;;6.98;100.00
69411;BME280;56604;48.652;9.194;2023-11-21T06:58:48;95728.09;;;7.24;100.00
69411;BME280;56604;48.652;9.194;2023-11-21T07:01:14;95724.31;;;7.14;100.00
69411;BME280;56604;48.652;9.194;2023-11-21T07:03:40;95729.97;;;7.67;100.00
69411;BME280;56604;48.652;9.194;2023-11-21T07:06:07;95727.41;;;7.50;100.00
69411;BME280;56604;48.652;9.194;2023-11-21T07:08:32;95730.31;;;7.54;100.00
69411;BME280;56604;48.652;9.194;2023-11-21T07:10:58;95724.72;;;7.45;100.00
69411;BME280;56604;48.652;9.194;2023-11-21T07:13:23;95733.25;;;7.57;100.00
69411;BME280;56604;48.652;9.194;2023-11-21T07:15:49;95734.28;;;7.56;100.00
69411;BME280;56604;48.652;9.194;2023-11-21T07:18:14;95729.81;;;7.57;100.00
69411;BME280;56604;48.652;9.194;2023-11-21T07:20:39;95732.13;;;7.53;100.00
69411;BME280;56604;48.652;9.194;2023-11-21T07:23:05;95742.91;;;7.57;100.00
69411;BME280;56604;48.652;9.194;2023-11-21T07:25:31;95741.03;;;7.52;100.00
69411;BME280;56604;48.652;9.194;2023-11-21T07:27:57;95741.88;;;7.58;100.00
69411;BME280;56604;48.652;9.194;2023-11-21T07:30:22;95744.06;;;7.44;100.00
69411;BME280;56604;48.652;9.194;2023-11-21T07:32:48;95749.91;;;7.51;100.00
69411;BME280;56604;48.652;9.194;2023-11-21T07:35:14;95748.94;;;7.57;100.00
69411;BME280;56604;48.652;9.194;2023-11-21T07:37:39;95748.47;;;7.60;100.00
69411;BME280;56604;48.652;9.194;2023-11-21T07:40:05;95749.25;;;7.61;100.00
69411;BME280;56604;48.652;9.194;2023-11-21T07:42:34;95758.84;;;7.55;100.00
69411;BME280;56604;48.652;9.194;2023-11-21T07:45:00;95764.00;;;7.50;100.00
69411;BME280;56604;48.652;9.194;2023-11-21T07:47:28;95764.78;;;7.51;100.00
69411;BME280;56604;48.652;9.194;2023-11-21T07:49:54;95769.41;;;7.60;100.00
69411;BME280;56604;48.652;9.194;2023-11-21T07:52:21;95775.75;;;7.48;100.00
69411;BME280;56604;48.652;9.194;2023-11-21T07:54:46;95772.13;;;7.49;100.00
69411;BME280;56604;48.652;9.194;2023-11-21T07:57:12;95777.66;;;7.52;100.00
69411;BME280;56604;48.652;9.194;2023-11-21T07:59:39;95777.16;;;7.55;100.00
69411;BME280;56604;48.652;9.194;2023-11-21T08:02:06;95769.81;;;7.52;100.00
69411;BME280;56604;48.652;9.194;2023-11-21T08:04:31;95775.78;;;7.70;100.00
69411;BME280;56604;48.652;9.194;2023-11-21T08:06:57;95769.91;;;7.62;100.00
69411;BME280;56604;48.652;9.194;2023-11-21T08:09:22;95771.03;;;7.66;100.00
69411;BME280;56604;48.652;9.194;2023-11-21T08:11:49;95780.03;;;7.76;100.00
69411;BME280;56604;48.652;9.194;2023-11-21T08:14:14;95773.91;;;7.87;100.00
69411;BME280;56604;48.652;9.194;2023-11-21T08:16:40;95771.22;;;7.82;100.00
69411;BME280;56604;48.652;9.194;2023-11-21T08:19:05;95783.41;;;7.93;100.00
69411;BME280;56604;48.652;9.194;2023-11-21T08:21:31;95779.28;;;7.97;100.00
69411;BME280;56604;48.652;9.194;2023-11-21T08:23:56;95780.78;;;7.93;100.00
69411;BME280;56604;48.652;9.194;2023-11-21T08:26:22;95784.13;;;8.10;100.00
69411;BME280;56604;48.652;9.194;2023-11-21T08:28:47;95781.47;;;8.05;99.99
69411;BME280;56604;48.652;9.194;2023-11-21T08:31:13;95785.00;;;7.94;100.00
69411;BME280;56604;48.652;9.194;2023-11-21T08:33:38;95789.78;;;8.02;99.95
69411;BME280;56604;48.652;9.194;2023-11-21T08:36:10;95791.25;;;8.15;99.70
69411;BME280;56604;48.652;9.194;2023-11-21T08:38:37;95795.03;;;8.24;100.00
69411;BME280;56604;48.652;9.194;2023-11-21T08:41:05;95793.75;;;8.27;99.91
69411;BME280;56604;48.652;9.194;2023-11-21T08:43:33;95791.69;;;8.29;99.18
69411;BME280;56604;48.652;9.194;2023-11-21T08:45:59;95803.63;;;8.20;99.23
69411;BME280;56604;48.652;9.194;2023-11-21T08:48:24;95804.47;;;8.25;99.12
69411;BME280;56604;48.652;9.194;2023-11-21T08:50:50;95799.72;;;8.22;99.59
69411;BME280;56604;48.652;9.194;2023-11-21T08:53:16;95804.97;;;8.00;99.72
69411;BME280;56604;48.652;9.194;2023-11-21T08:55:42;95805.56;;;8.07;99.85
69411;BME280;56604;48.652;9.194;2023-11-21T08:58:09;95806.06;;;8.04;100.00
69411;BME280;56604;48.652;9.194;2023-11-21T09:00:34;95806.72;;;8.17;100.00
69411;BME280;56604;48.652;9.194;2023-11-21T09:03:01;95806.69;;;8.11;100.00
69411;BME280;56604;48.652;9.194;2023-11-21T09:05:27;95816.94;;;7.96;100.00
69411;BME280;56604;48.652;9.194;2023-11-21T09:07:53;95815.50;;;8.05;100.00
69411;BME280;56604;48.652;9.194;2023-11-21T09:10:18;95818.72;;;8.13;100.00
69411;BME280;56604;48.652;9.194;2023-11-21T09:12:44;95818.22;;;8.16;100.00
69411;BME280;56604;48.652;9.194;2023-11-21T09:15:10;95817.88;;;8.29;100.00
69411;BME280;56604;48.652;9.194;2023-11-21T09:17:36;95817.63;;;8.52;100.00
69411;BME280;56604;48.652;9.194;2023-11-21T09:20:02;95818.31;;;8.70;99.61
69411;BME280;56604;48.652;9.194;2023-11-21T09:22:31;95818.03;;;8.93;98.67
69411;BME280;56604;48.652;9.194;2023-11-21T09:24:57;95817.13;;;9.10;97.51
69411;BME280;56604;48.652;9.194;2023-11-21T09:27:22;95825.16;;;8.98;96.59
69411;BME280;56604;48.652;9.194;2023-11-21T09:29:48;95828.16;;;9.12;96.22
69411;BME280;56604;48.652;9.194;2023-11-21T09:32:14;95827.25;;;9.28;95.51
69411;BME280;56604;48.652;9.194;2023-11-21T09:34:43;95825.78;;;9.42;94.67
69411;BME280;56604;48.652;9.194;2023-11-21T09:37:09;95824.69;;;9.38;94.75
69411;BME280;56604;48.652;9.194;2023-11-21T09:39:34;95828.28;;;9.27;94.50
69411;BME280;56604;48.652;9.194;2023-11-21T09:42:25;95830.38;;;9.25;94.64
69411;BME280;56604;48.652;9.194;2023-11-21T09:45:15;95834.69;;;9.41;95.39
69411;BME280;56604;48.652;9.194;2023-11-21T09:47:43;95836.47;;;9.36;94.80
69411;BME280;56604;48.652;9.194;2023-11-21T09:50:09;95840.56;;;9.59;93.54
69411;BME280;56604;48.652;9.194;2023-11-21T09:52:52;95835.19;;;9.81;93.98
69411;BME280;56604;48.652;9.194;2023-11-21T09:55:21;95845.75;;;9.86;93.09
69411;BME280;56604;48.652;9.194;2023-11-21T09:57:47;95842.84;;;9.87;93.33
69411;BME280;56604;48.652;9.194;2023-11-21T10:00:14;95845.94;;;9.74;92.73
69411;BME280;56604;48.652;9.194;2023-11-21T10:02:43;95846.38;;;9.61;93.03
69411;BME280;56604;48.652;9.194;2023-11-21T10:05:09;95851.66;;;9.66;93.65
69411;BME280;56604;48.652;9.194;2023-11-21T10:07:34;95847.47;;;9.65;93.71
69411;BME280;56604;48.652;9.194;2023-11-21T10:10:01;95853.19;;;9.62;92.75
69411;BME280;56604;48.652;9.194;2023-11-21T10:12:28;95844.38;;;9.78;93.31
69411;BME280;56604;48.652;9.194;2023-11-21T10:14:54;95856.97;;;9.76;92.70
69411;BME280;56604;48.652;9.194;2023-11-21T10:17:24;95845.75;;;9.86;92.97
69411;BME280;56604;48.652;9.194;2023-11-21T10:19:51;95847.03;;;9.83;92.57
69411;BME280;56604;48.652;9.194;2023-11-21T10:22:19;95852.56;;;9.87;92.60
69411;BME280;56604;48.652;9.194;2023-11-21T10:24:45;95842.38;;;9.96;92.25
69411;BME280;56604;48.652;9.194;2023-11-21T10:27:11;95833.63;;;10.27;92.03
69411;BME280;56604;48.652;9.194;2023-11-21T10:29:36;95849.22;;;9.97;92.06
69411;BME280;56604;48.652;9.194;2023-11-21T10:32:02;95845.13;;;10.16;92.26
69411;BME280;56604;48.652;9.194;2023-11-21T10:34:29;95863.38;;;9.90;91.83
69411;BME280;56604;48.652;9.194;2023-11-21T10:36:54;95858.84;;;9.81;91.59
69411;BME280;56604;48.652;9.194;2023-11-21T10:39:23;95859.66;;;9.49;93.41
69411;BME280;56604;48.652;9.194;2023-11-21T10:41:53;95857.03;;;9.86;94.90
69411;BME280;56604;48.652;9.194;2023-11-21T10:44:20;95858.19;;;10.06;92.83
69411;BME280;56604;48.652;9.194;2023-11-21T10:46:49;95863.41;;;10.01;93.46
69411;BME280;56604;48.652;9.194;2023-11-21T10:49:18;95856.56;;;9.95;93.32
69411;BME280;56604;48.652;9.194;2023-11-21T10:51:44;95859.63;;;9.81;92.84
69411;BME280;56604;48.652;9.194;2023-11-21T10:54:10;95861.22;;;9.82;93.22
69411;BME280;56604;48.652;9.194;2023-11-21T10:56:38;95863.81;;;9.77;94.97
69411;BME280;56604;48.652;9.194;2023-11-21T10:59:08;95868.47;;;9.70;95.37
69411;BME280;56604;48.652;9.194;2023-11-21T11:01:34;95870.06;;;9.71;94.62
69411;BME280;56604;48.652;9.194;2023-11-21T11:04:01;95862.94;;;9.66;94.54
69411;BME280;56604;48.652;9.194;2023-11-21T11:06:30;95868.31;;;9.50;94.83
69411;BME280;56604;48.652;9.194;2023-11-21T11:08:58;95864.00;;;9.33;96.85
69411;BME280;56604;48.652;9.194;2023-11-21T11:11:25;95870.69;;;9.19;99.06
69411;BME280;56604;48.652;9.194;2023-11-21T11:13:51;95864.03;;;9.38;98.60
69411;BME280;56604;48.652;9.194;2023-11-21T11:16:18;95863.41;;;9.26;97.84
69411;BME280;56604;48.652;9.194;2023-11-21T11:18:44;95866.50;;;9.18;99.16
69411;BME280;56604;48.652;9.194;2023-11-21T11:21:36;95865.09;;;9.10;99.20
69411;BME280;56604;48.652;9.194;2023-11-21T11:32:50;95866.28;;;9.24;99.46
69411;BME280;56604;48.652;9.194;2023-11-21T11:38:01;95860.84;;;9.31;100.00
69411;BME280;56604;48.652;9.194;2023-11-21T11:40:46;95877.66;;;9.35;99.36
69411;BME280;56604;48.652;9.194;2023-11-21T11:43:12;95870.50;;;9.58;97.69
69411;BME280;56604;48.652;9.194;2023-11-21T11:45:38;95863.22;;;9.70;98.24
69411;BME280;56604;48.652;9.194;2023-11-21T11:48:08;95877.31;;;9.59;98.38
69411;BME280;56604;48.652;9.194;2023-11-21T11:50:33;95878.63;;;9.56;98.62
69411;BME280;56604;48.652;9.194;2023-11-21T11:53:13;95879.81;;;9.43;98.63
69411;BME280;56604;48.652;9.194;2023-11-21T11:55:39;95876.63;;;9.36;98.41
69411;BME280;56604;48.652;9.194;2023-11-21T11:58:08;95881.22;;;9.24;99.35
69411;BME280;56604;48.652;9.194;2023-11-21T12:00:34;95890.81;;;9.40;98.92
69411;BME280;56604;48.652;9.194;2023-11-21T12:03:04;95879.00;;;9.38;99.23
69411;BME280;56604;48.652;9.194;2023-11-21T12:05:32;95878.59;;;9.24;99.52
69411;BME280;56604;48.652;9.194;2023-11-21T12:08:05;95879.44;;;9.30;98.77
69411;BME280;56604;48.652;9.194;2023-11-21T12:10:35;95883.50;;;9.42;100.00
69411;BME280;56604;48.652;9.194;2023-11-21T12:13:06;95878.53;;;9.46;99.24
69411;BME280;56604;48.652;9.194;2023-11-21T12:15:35;95882.53;;;9.54;99.25
69411;BME280;56604;48.652;9.194;2023-11-21T12:18:01;95879.81;;;9.43;99.73
69411;BME280;56604;48.652;9.194;2023-11-21T12:20:27;95884.41;;;9.58;99.39
69411;BME280;56604;48.652;9.194;2023-11-21T12:22:55;95884.53;;;9.41;98.76
69411;BME280;56604;48.652;9.194;2023-11-21T12:25:22;95887.66;;;9.38;98.57
69411;BME280;56604;48.652;9.194;2023-11-21T12:27:49;95883.59;;;9.58;98.63
69411;BME280;56604;48.652;9.194;2023-11-21T12:30:22;95886.38;;;9.78;98.03
69411;BME280;56604;48.652;9.194;2023-11-21T12:32:53;95891.56;;;9.68;97.35
69411;BME280;56604;48.652;9.194;2023-11-21T12:35:19;95892.50;;;9.52;97.68
69411;BME280;56604;48.652;9.194;2023-11-21T12:37:46;95892.72;;;9.45;99.33
69411;BME280;56604;48.652;9.194;2023-11-21T12:40:13;95891.75;;;9.61;99.06
69411;BME280;56604;48.652;9.194;2023-11-21T12:42:45;95892.06;;;9.65;98.64
69411;BME280;56604;48.652;9.194;2023-11-21T12:47:41;95891.81;;;10.09;96.33
69411;BME280;56604;48.652;9.194;2023-11-21T12:50:07;95898.13;;;10.13;94.72
69411;BME280;56604;48.652;9.194;2023-11-21T12:52:42;95906.47;;;10.37;94.52
69411;BME280;56604;48.652;9.194;2023-11-21T12:55:21;95895.50;;;10.08;93.53
69411;BME280;56604;48.652;9.194;2023-11-21T12:57:52;95892.03;;;10.40;92.28
69411;BME280;56604;48.652;9.194;2023-11-21T13:00:20;95897.97;;;9.82;94.41
69411;BME280;56604;48.652;9.194;2023-11-21T13:02:57;95897.66;;;10.16;92.16
69411;BME280;56604;48.652;9.194;2023-11-21T13:05:28;95896.38;;;10.24;93.04
69411;BME280;56604;48.652;9.194;2023-11-21T13:07:55;95896.19;;;10.35;92.11
69411;BME280;56604;48.652;9.194;2023-11-21T13:10:24;95892.06;;;10.45;92.38
69411;BME280;56604;48.652;9.194;2023-11-21T13:13:00;95886.75;;;10.34;92.59
69411;BME280;56604;48.652;9.194;2023-11-21T13:15:29;95891.59;;;10.16;94.21